Time;durP1;ratioP1;P1;durP2;ratioP2;P2;SDS_P1;SDS_P2;PMS_P1;PMS_P2;Temp;Humidity;BMP_temperature;BMP_pressure;BME280_temperature;BME280_humidity;BME280_pressure;Samples;Min_cycle;Max_cycle;Signal;HPM_P1;HPM_P2
2024/03/03 00:01:58;;;;;;;14.97;12.50;;;9.80;99.90;;;;;;5033117;28;20203;-61
2024/03/03 00:04:26;;;;;;;15.10;12.73;;;9.80;99.90;;;;;;5014276;28;20209;-61
2024/03/03 00:06:54;;;;;;;14.63;12.80;;;9.80;99.90;;;;;;5040665;28;20202;-61
2024/03/03 00:09:22;;;;;;;13.50;11.57;;;9.80;99.90;;;;;;5031585;28;20285;-61
2024/03/03 00:11:49;;;;;;;16.53;11.03;;;9.80;99.90;;;;;;5030810;28;20207;-61
2024/03/03 00:14:17;;;;;;;13.17;11.77;;;9.80;99.90;;;;;;5009383;28;20206;-61
2024/03/03 00:16:44;;;;;;;15.70;11.93;;;9.80;99.90;;;;;;5030639;28;20218;-61
2024/03/03 00:19:12;;;;;;;14.63;11.93;;;9.80;99.90;;;;;;5027242;28;20525;-61
2024/03/03 00:21:39;;;;;;;13.23;11.40;;;9.80;99.90;;;;;;5025179;28;20217;-61
2024/03/03 00:24:07;;;;;;;14.80;10.90;;;9.80;99.90;;;;;;5027872;28;20210;-61
2024/03/03 00:26:35;;;;;;;13.70;10.27;;;9.80;99.90;;;;;;5030476;28;20217;-61
2024/03/03 00:29:04;;;;;;;14.73;11.53;;;9.80;99.90;;;;;;5031102;28;20207;-61
2024/03/03 00:31:32;;;;;;;16.47;11.07;;;9.70;99.90;;;;;;5029263;28;20211;-61
2024/03/03 00:33:59;;;;;;;12.57;11.27;;;9.70;99.90;;;;;;5032533;28;20211;-61
2024/03/03 00:36:28;;;;;;;13.07;9.73;;;9.70;99.90;;;;;;5015168;28;20202;-61
2024/03/03 00:38:55;;;;;;;12.97;10.03;;;9.70;99.90;;;;;;5032031;28;20210;-61
2024/03/03 00:41:22;;;;;;;15.77;10.37;;;9.60;99.90;;;;;;5032893;28;20196;-61
2024/03/03 00:43:50;;;;;;;12.63;9.90;;;9.60;99.90;;;;;;5032915;28;20211;-61
2024/03/03 00:46:19;;;;;;;13.13;11.00;;;9.50;99.90;;;;;;5031340;28;20342;-61
2024/03/03 00:48:46;;;;;;;11.57;10.37;;;9.50;99.90;;;;;;5033400;28;20614;-61
2024/03/03 00:51:14;;;;;;;12.50;11.13;;;9.40;99.90;;;;;;5031211;28;20517;-62
2024/03/03 00:53:42;;;;;;;11.30;9.90;;;9.30;99.90;;;;;;5032381;28;20210;-61
2024/03/03 00:56:10;;;;;;;10.87;9.70;;;9.40;99.90;;;;;;5031851;28;20705;-61
2024/03/03 00:58:37;;;;;;;11.83;9.27;;;9.30;99.90;;;;;;5023638;28;20226;-61
2024/03/03 01:01:05;;;;;;;11.17;9.20;;;9.30;99.90;;;;;;5029945;28;20304;-61
2024/03/03 01:03:32;;;;;;;11.43;9.30;;;9.30;99.90;;;;;;5031502;28;20631;-61
2024/03/03 01:06:00;;;;;;;11.93;10.00;;;9.30;99.90;;;;;;5028465;28;20232;-61
2024/03/03 01:08:27;;;;;;;12.63;9.57;;;9.30;99.90;;;;;;5030736;28;20213;-61
2024/03/03 01:10:55;;;;;;;11.40;9.30;;;9.30;99.90;;;;;;5029973;28;20250;-61
2024/03/03 01:13:23;;;;;;;13.13;10.37;;;9.30;99.90;;;;;;5032099;28;20225;-61
2024/03/03 01:15:52;;;;;;;12.63;8.80;;;9.40;99.90;;;;;;5030395;28;20198;-61
2024/03/03 01:18:20;;;;;;;17.67;9.17;;;9.40;99.90;;;;;;5030974;28;20218;-61
2024/03/03 01:20:48;;;;;;;13.97;9.17;;;9.40;99.90;;;;;;5031385;28;20258;-61
2024/03/03 01:23:16;;;;;;;10.80;8.60;;;9.40;99.90;;;;;;5032293;28;20209;-61
2024/03/03 01:25:43;;;;;;;13.43;8.40;;;9.40;99.90;;;;;;5032259;28;20212;-61
2024/03/03 01:28:11;;;;;;;10.47;7.93;;;9.50;99.90;;;;;;5031083;28;20202;-61
2024/03/03 01:30:39;;;;;;;11.63;8.17;;;9.50;99.90;;;;;;5031863;28;20205;-59
2024/03/03 01:33:06;;;;;;;10.80;8.03;;;9.50;99.90;;;;;;5031514;28;20220;-61
2024/03/03 01:35:33;;;;;;;9.37;7.00;;;9.50;99.90;;;;;;5033961;28;20668;-61
2024/03/03 01:38:01;;;;;;;9.33;7.07;;;9.50;99.90;;;;;;5033279;28;20770;-61
2024/03/03 01:40:28;;;;;;;10.33;7.20;;;9.60;99.90;;;;;;5034760;28;20214;-61
2024/03/03 01:42:56;;;;;;;11.87;7.57;;;9.60;99.90;;;;;;5035708;28;20217;-61
2024/03/03 01:45:25;;;;;;;7.93;6.47;;;9.60;99.90;;;;;;5034227;28;20206;-61
2024/03/03 01:47:54;;;;;;;11.43;6.70;;;9.60;99.90;;;;;;5035372;28;20324;-59
2024/03/03 01:50:26;;;;;;;10.97;6.73;;;9.60;99.90;;;;;;5032168;28;20229;-60
2024/03/03 01:52:55;;;;;;;12.70;7.20;;;9.70;99.90;;;;;;5034525;28;20261;-59
2024/03/03 01:55:23;;;;;;;8.07;6.23;;;9.70;99.90;;;;;;5034433;28;20225;-59
2024/03/03 01:57:56;;;;;;;8.57;6.40;;;9.70;99.90;;;;;;5032279;28;20224;-60
2024/03/03 02:00:25;;;;;;;10.57;6.43;;;9.70;99.90;;;;;;5033743;28;20317;-59
2024/03/03 02:02:52;;;;;;;10.90;6.40;;;9.70;99.90;;;;;;5017061;28;20273;-61
2024/03/03 02:05:20;;;;;;;8.23;5.73;;;9.60;99.90;;;;;;5016585;28;20299;-60
2024/03/03 02:07:47;;;;;;;9.57;5.80;;;9.60;99.90;;;;;;5033031;28;20221;-60
2024/03/03 02:10:15;;;;;;;14.07;6.30;;;9.60;99.90;;;;;;5034991;28;20204;-60
2024/03/03 02:12:46;;;;;;;10.57;6.47;;;9.60;99.90;;;;;;5019191;28;20218;-60
2024/03/03 02:15:17;;;;;;;11.87;6.57;;;9.60;99.90;;;;;;5013732;28;20214;-59
2024/03/03 02:17:45;;;;;;;11.90;5.83;;;9.60;99.90;;;;;;5034201;28;20218;-60
2024/03/03 02:20:13;;;;;;;7.13;6.03;;;9.60;99.90;;;;;;5034248;28;20208;-60
2024/03/03 02:22:40;;;;;;;10.80;6.30;;;9.60;99.90;;;;;;5034741;28;20221;-60
2024/03/03 02:25:10;;;;;;;9.33;5.70;;;9.50;99.90;;;;;;5031468;28;20302;-60
2024/03/03 02:27:40;;;;;;;7.80;4.23;;;9.50;99.90;;;;;;5048436;28;20217;-60
2024/03/03 02:30:08;;;;;;;10.30;4.87;;;9.50;99.90;;;;;;5030923;28;20630;-60
2024/03/03 02:32:36;;;;;;;11.43;5.13;;;9.50;99.90;;;;;;5030601;28;20204;-61
2024/03/03 02:35:06;;;;;;;5.00;4.07;;;9.50;99.90;;;;;;5034114;28;20654;-60
2024/03/03 02:37:34;;;;;;;8.00;4.33;;;9.50;99.90;;;;;;5032190;28;20227;-60
2024/03/03 02:40:03;;;;;;;5.73;4.13;;;9.50;99.90;;;;;;5032442;28;20651;-61
2024/03/03 02:42:31;;;;;;;7.70;4.30;;;9.50;99.90;;;;;;5028815;28;20259;-60
2024/03/03 02:45:02;;;;;;;8.70;4.40;;;9.50;99.90;;;;;;5032064;28;20609;-60
2024/03/03 02:47:31;;;;;;;6.90;4.20;;;9.50;99.90;;;;;;5032268;28;20215;-60
2024/03/03 02:50:03;;;;;;;7.87;4.20;;;9.50;99.90;;;;;;5031802;28;20206;-60
2024/03/03 02:52:31;;;;;;;5.87;4.00;;;9.50;99.90;;;;;;5033414;28;20206;-60
2024/03/03 02:55:01;;;;;;;7.53;3.93;;;9.50;99.90;;;;;;5017696;28;20209;-60
2024/03/03 02:57:29;;;;;;;9.13;4.13;;;9.50;99.90;;;;;;5033367;28;20293;-60
2024/03/03 02:59:59;;;;;;;9.53;5.37;;;9.40;99.90;;;;;;5032617;28;20198;-60
2024/03/03 03:02:26;;;;;;;5.77;4.20;;;9.40;99.90;;;;;;5033714;28;20221;-61
2024/03/03 03:04:54;;;;;;;8.07;4.10;;;9.40;99.90;;;;;;5032365;28;20201;-60
2024/03/03 03:07:22;;;;;;;6.13;4.33;;;9.40;99.90;;;;;;5031585;28;20209;-60
2024/03/03 03:09:50;;;;;;;4.60;3.87;;;9.40;99.90;;;;;;5035291;28;20209;-60
2024/03/03 03:12:17;;;;;;;7.23;4.17;;;9.40;99.90;;;;;;5033884;28;20995;-61
2024/03/03 03:14:44;;;;;;;6.80;3.40;;;9.40;99.90;;;;;;5030822;28;20556;-60
2024/03/03 03:17:13;;;;;;;8.23;3.30;;;9.30;99.90;;;;;;5028484;28;20206;-60
2024/03/03 03:19:44;;;;;;;6.40;3.20;;;9.30;99.90;;;;;;5026949;28;20336;-60
2024/03/03 03:22:12;;;;;;;6.23;3.03;;;9.30;99.90;;;;;;5030299;28;20221;-60
2024/03/03 03:24:41;;;;;;;5.03;2.63;;;9.30;99.90;;;;;;5033352;28;20241;-60
2024/03/03 03:27:12;;;;;;;11.57;2.67;;;9.30;99.90;;;;;;5014856;28;20589;-61
2024/03/03 03:29:43;;;;;;;4.90;2.20;;;9.30;99.90;;;;;;5026696;28;20264;-60
2024/03/03 03:32:12;;;;;;;8.23;2.57;;;9.30;99.90;;;;;;5015597;28;20206;-60
2024/03/03 03:34:39;;;;;;;10.43;3.00;;;9.40;99.90;;;;;;5030461;28;20325;-60
2024/03/03 03:37:07;;;;;;;6.73;3.07;;;9.40;99.90;;;;;;5031213;28;20242;-60
2024/03/03 03:39:37;;;;;;;4.17;2.30;;;9.50;99.90;;;;;;5030510;28;20198;-60
2024/03/03 03:42:07;;;;;;;3.60;2.30;;;9.50;99.90;;;;;;5033486;28;20205;-61
2024/03/03 03:44:35;;;;;;;5.43;2.70;;;9.50;99.90;;;;;;5032788;28;20286;-60
2024/03/03 03:47:04;;;;;;;10.20;3.00;;;9.50;99.90;;;;;;5033438;28;20184;-60
2024/03/03 03:49:32;;;;;;;9.00;2.40;;;9.60;99.90;;;;;;5033183;28;20220;-60
2024/03/03 03:52:03;;;;;;;3.73;2.03;;;9.60;99.90;;;;;;5033310;28;20190;-60
2024/03/03 03:54:34;;;;;;;6.80;2.00;;;9.60;99.90;;;;;;5032868;28;20206;-60
2024/03/03 03:57:06;;;;;;;3.03;1.80;;;9.70;99.90;;;;;;5013702;28;20744;-60
2024/03/03 03:59:37;;;;;;;5.07;2.07;;;9.70;99.90;;;;;;5013315;28;20299;-60
2024/03/03 04:02:05;;;;;;;4.30;1.80;;;9.80;99.90;;;;;;5032617;28;20217;-60
2024/03/03 04:04:37;;;;;;;6.97;2.00;;;9.80;99.90;;;;;;5015161;28;20288;-60
2024/03/03 04:07:07;;;;;;;5.37;1.90;;;9.80;99.90;;;;;;5029380;28;20528;-60
2024/03/03 04:09:37;;;;;;;6.30;1.80;;;9.80;99.90;;;;;;5026907;28;20210;-60
2024/03/03 04:12:08;;;;;;;4.97;1.53;;;9.80;99.90;;;;;;5024575;28;20669;-60
2024/03/03 04:14:36;;;;;;;2.87;1.77;;;9.90;99.90;;;;;;5028731;28;20203;-60
2024/03/03 04:17:07;;;;;;;6.27;1.70;;;9.90;99.90;;;;;;5032628;28;20295;-60
2024/03/03 04:19:34;;;;;;;7.27;1.90;;;9.90;99.90;;;;;;5032259;28;20225;-60
2024/03/03 04:22:01;;;;;;;3.97;1.93;;;10.00;99.90;;;;;;5032961;28;20219;-60
2024/03/03 04:24:29;;;;;;;3.67;1.60;;;10.00;99.90;;;;;;5031883;28;20651;-60
2024/03/03 04:27:00;;;;;;;3.13;1.90;;;10.00;99.90;;;;;;5015780;28;20255;-60
2024/03/03 04:29:30;;;;;;;5.27;1.57;;;10.00;99.90;;;;;;5031064;28;20235;-60
2024/03/03 04:31:59;;;;;;;6.40;1.87;;;10.00;99.90;;;;;;5031258;28;20241;-60
2024/03/03 04:34:29;;;;;;;7.57;2.00;;;10.00;99.90;;;;;;5031950;28;20299;-60
2024/03/03 04:37:00;;;;;;;10.23;1.67;;;10.00;99.90;;;;;;5016209;28;20270;-60
2024/03/03 04:39:28;;;;;;;4.27;1.40;;;10.00;99.90;;;;;;5016888;28;20610;-60
2024/03/03 04:41:55;;;;;;;8.30;1.90;;;10.00;99.90;;;;;;5033992;28;20292;-60
2024/03/03 04:44:23;;;;;;;4.67;1.47;;;10.00;99.90;;;;;;5030753;28;20222;-60
2024/03/03 04:46:53;;;;;;;4.03;1.40;;;9.90;99.90;;;;;;5032550;28;20204;-60
2024/03/03 04:49:22;;;;;;;7.00;1.87;;;9.90;99.90;;;;;;5016000;28;20220;-60
2024/03/03 04:51:50;;;;;;;2.63;1.60;;;9.90;99.90;;;;;;5029517;28;20364;-60
2024/03/03 04:54:17;;;;;;;5.43;1.50;;;9.90;99.90;;;;;;5048308;28;20207;-60
2024/03/03 04:56:46;;;;;;;3.63;1.40;;;9.90;99.90;;;;;;5032141;28;20226;-60
2024/03/03 04:59:15;;;;;;;5.67;1.73;;;9.90;99.90;;;;;;5016317;28;20218;-60
2024/03/03 05:01:43;;;;;;;8.20;1.77;;;10.00;99.90;;;;;;5032185;28;20209;-60
2024/03/03 05:04:13;;;;;;;3.80;1.63;;;9.90;99.90;;;;;;5030379;28;20206;-60
2024/03/03 05:06:48;;;;;;;5.00;1.43;;;10.00;99.90;;;;;;5031530;28;20197;-60
2024/03/03 05:09:18;;;;;;;4.63;1.20;;;10.00;99.90;;;;;;5029018;28;20284;-60
2024/03/03 05:11:45;;;;;;;3.00;1.57;;;10.00;99.90;;;;;;5031972;28;20210;-60
2024/03/03 05:14:13;;;;;;;5.30;1.77;;;10.00;99.90;;;;;;5026034;28;20643;-60
2024/03/03 05:16:41;;;;;;;9.90;2.20;;;9.90;99.90;;;;;;5035090;28;20646;-60
2024/03/03 05:19:14;;;;;;;5.43;2.37;;;10.00;99.90;;;;;;5016137;28;20215;-60
2024/03/03 05:21:44;;;;;;;4.13;1.67;;;9.90;99.90;;;;;;5032114;28;20198;-61
2024/03/03 05:24:13;;;;;;;5.43;1.53;;;9.90;99.90;;;;;;5019033;28;20224;-60
2024/03/03 05:26:41;;;;;;;3.73;1.40;;;9.90;99.90;;;;;;5036079;28;20229;-60
2024/03/03 05:29:10;;;;;;;4.03;1.30;;;9.90;99.90;;;;;;5019160;28;21343;-60
2024/03/03 05:31:42;;;;;;;3.53;1.20;;;9.90;99.90;;;;;;5031581;28;20199;-60
2024/03/03 05:34:12;;;;;;;4.93;1.50;;;9.90;99.90;;;;;;5017285;28;20274;-60
2024/03/03 05:36:44;;;;;;;7.43;1.47;;;9.90;99.90;;;;;;5046721;28;20204;-60
2024/03/03 05:39:12;;;;;;;3.60;0.90;;;9.90;99.90;;;;;;5033962;28;20222;-60
2024/03/03 05:41:40;;;;;;;4.27;1.43;;;9.90;99.90;;;;;;5033749;28;20305;-60
2024/03/03 05:44:09;;;;;;;4.63;1.30;;;9.90;99.90;;;;;;5031760;28;20577;-60
2024/03/03 05:46:38;;;;;;;9.23;1.13;;;9.90;99.90;;;;;;5032862;28;20202;-60
2024/03/03 05:49:07;;;;;;;3.47;1.33;;;9.90;99.90;;;;;;5033678;28;20207;-60
2024/03/03 05:51:36;;;;;;;7.27;1.87;;;9.90;99.90;;;;;;5034977;28;20229;-60
2024/03/03 05:54:06;;;;;;;6.77;1.20;;;9.90;99.90;;;;;;5033160;28;20637;-60
2024/03/03 05:56:34;;;;;;;2.37;1.40;;;9.90;99.90;;;;;;5033570;28;20208;-60
2024/03/03 05:59:06;;;;;;;8.57;1.30;;;9.90;99.90;;;;;;5035008;28;20213;-60
2024/03/03 06:01:36;;;;;;;3.33;1.33;;;9.90;99.90;;;;;;5000587;28;20211;-60
2024/03/03 06:04:06;;;;;;;5.43;1.93;;;9.90;99.90;;;;;;5050748;28;20197;-61
2024/03/03 06:06:33;;;;;;;6.33;1.97;;;9.90;99.90;;;;;;5035133;28;20678;-60
2024/03/03 06:09:04;;;;;;;4.70;1.43;;;9.90;99.90;;;;;;5034357;28;20304;-60
2024/03/03 06:11:33;;;;;;;7.80;1.53;;;10.00;99.90;;;;;;5015914;28;20205;-60
2024/03/03 06:14:00;;;;;;;3.07;1.60;;;10.00;99.90;;;;;;5035261;28;20206;-60
2024/03/03 06:16:29;;;;;;;3.10;1.97;;;10.00;99.90;;;;;;5035236;28;20199;-60
2024/03/03 06:19:02;;;;;;;7.83;1.73;;;10.00;99.90;;;;;;5035029;28;20219;-60
2024/03/03 06:21:32;;;;;;;6.90;1.47;;;10.10;99.90;;;;;;5033416;28;20648;-60
2024/03/03 06:24:02;;;;;;;2.60;1.43;;;10.10;99.90;;;;;;5033223;28;20198;-60
2024/03/03 06:26:33;;;;;;;2.50;2.00;;;10.10;99.90;;;;;;5032956;28;20660;-61
2024/03/03 06:29:00;;;;;;;3.53;2.33;;;10.10;99.90;;;;;;5043097;28;20202;-60
2024/03/03 06:31:32;;;;;;;3.67;2.87;;;10.00;99.90;;;;;;5028455;28;20685;-60
2024/03/03 06:34:00;;;;;;;6.70;2.83;;;9.90;99.90;;;;;;5032434;28;20538;-60
2024/03/03 06:36:28;;;;;;;6.20;2.43;;;9.90;99.90;;;;;;5031131;28;20211;-60
2024/03/03 06:38:56;;;;;;;7.63;3.00;;;9.80;99.90;;;;;;5034432;28;20218;-60
2024/03/03 06:41:24;;;;;;;6.57;2.77;;;9.80;99.90;;;;;;5034342;28;20194;-60
2024/03/03 06:43:54;;;;;;;4.30;2.30;;;9.80;99.90;;;;;;5032931;28;20600;-60
2024/03/03 06:46:23;;;;;;;4.93;2.87;;;9.80;99.90;;;;;;5048149;28;20199;-60
2024/03/03 06:48:51;;;;;;;5.50;2.77;;;9.80;99.90;;;;;;5031904;28;20623;-60
2024/03/03 06:51:20;;;;;;;2.70;2.30;;;9.80;99.90;;;;;;5048215;28;20217;-62
2024/03/03 06:53:49;;;;;;;9.80;2.70;;;9.80;99.90;;;;;;5033155;28;20222;-61
2024/03/03 06:56:19;;;;;;;3.73;2.80;;;9.80;99.90;;;;;;5016593;28;20546;-60
2024/03/03 06:58:46;;;;;;;8.33;2.43;;;9.80;99.90;;;;;;5034085;28;20228;-60
2024/03/03 07:01:15;;;;;;;7.50;2.37;;;9.80;99.90;;;;;;5033223;28;20529;-60
2024/03/03 07:06:30;;;;;;;7.90;2.73;;;9.90;99.90;;;;;;5034235;28;20200;-59
2024/03/03 07:08:59;;;;;;;9.40;2.83;;;9.90;99.90;;;;;;5032289;28;20212;-60
2024/03/03 07:11:27;;;;;;;8.80;3.17;;;9.80;99.90;;;;;;5032424;28;20202;-60
2024/03/03 07:13:56;;;;;;;5.23;3.03;;;9.90;99.90;;;;;;5017959;28;20214;-60
2024/03/03 07:16:25;;;;;;;5.87;3.10;;;9.90;99.90;;;;;;5032551;28;20206;-60
2024/03/03 07:18:53;;;;;;;4.73;3.03;;;9.80;99.90;;;;;;5032107;28;20622;-60
2024/03/03 07:21:21;;;;;;;6.10;3.40;;;9.90;99.90;;;;;;5029741;28;20225;-60
2024/03/03 07:23:49;;;;;;;2.60;2.40;;;9.90;99.90;;;;;;5033245;28;20271;-60
2024/03/03 07:26:17;;;;;;;5.77;2.43;;;10.00;99.90;;;;;;5030588;28;20289;-60
2024/03/03 07:28:46;;;;;;;3.63;2.40;;;10.00;99.90;;;;;;5031172;28;20272;-60
2024/03/03 07:31:14;;;;;;;15.03;2.90;;;10.10;99.90;;;;;;5031544;28;20283;-61
2024/03/03 07:33:43;;;;;;;3.57;2.10;;;10.20;99.90;;;;;;5030811;28;20211;-60
2024/03/03 07:36:12;;;;;;;2.60;1.80;;;10.30;99.90;;;;;;5032017;28;20235;-62
2024/03/03 07:38:41;;;;;;;6.53;1.77;;;10.50;99.90;;;;;;5031679;28;20216;-61
2024/03/03 07:41:09;;;;;;;6.63;1.70;;;10.60;99.90;;;;;;5027593;28;20219;-61
2024/03/03 07:43:37;;;;;;;6.67;1.50;;;10.80;99.90;;;;;;5030579;28;20222;-60
2024/03/03 07:46:06;;;;;;;4.37;1.37;;;10.90;99.90;;;;;;5031977;28;20201;-61
2024/03/03 07:48:35;;;;;;;4.20;1.20;;;11.10;99.90;;;;;;5016448;28;20203;-61
2024/03/03 07:51:04;;;;;;;4.97;1.60;;;11.20;99.90;;;;;;5030045;28;20208;-61
2024/03/03 07:53:33;;;;;;;5.33;1.10;;;11.40;99.90;;;;;;5032339;28;20230;-61
2024/03/03 07:56:03;;;;;;;7.27;1.30;;;11.60;99.90;;;;;;5027755;28;20301;-61
2024/03/03 07:58:36;;;;;;;4.30;1.43;;;11.70;99.90;;;;;;5016034;28;20238;-61
2024/03/03 08:01:05;;;;;;;5.73;2.20;;;11.90;99.90;;;;;;5049155;28;20194;-61
2024/03/03 08:03:34;;;;;;;4.27;1.40;;;12.00;99.90;;;;;;5043783;28;20199;-61
2024/03/03 08:06:04;;;;;;;5.10;1.50;;;12.10;99.90;;;;;;5029159;28;20214;-61
2024/03/03 08:08:36;;;;;;;7.13;1.40;;;12.20;99.90;;;;;;5031649;28;20549;-60
2024/03/03 08:11:06;;;;;;;5.17;1.60;;;12.40;99.90;;;;;;5025034;28;20205;-60
2024/03/03 08:13:36;;;;;;;11.10;1.50;;;12.50;99.80;;;;;;5014108;28;20198;-60
2024/03/03 08:16:05;;;;;;;9.60;1.77;;;12.60;99.70;;;;;;5031034;28;20272;-60
2024/03/03 08:18:33;;;;;;;7.40;1.20;;;12.60;99.50;;;;;;5031799;28;20203;-60
2024/03/03 08:21:02;;;;;;;5.10;1.13;;;12.80;99.30;;;;;;5029602;28;20233;-61
2024/03/03 08:23:30;;;;;;;3.77;1.53;;;12.90;99.10;;;;;;5031733;28;20191;-60
2024/03/03 08:25:59;;;;;;;4.30;1.73;;;13.10;99.00;;;;;;5032333;28;20197;-61
2024/03/03 08:28:26;;;;;;;4.23;1.03;;;13.20;98.40;;;;;;5032385;28;20209;-60
2024/03/03 08:30:55;;;;;;;6.63;1.10;;;13.30;98.30;;;;;;5032776;28;20194;-60
2024/03/03 08:33:22;;;;;;;6.53;1.60;;;13.40;98.30;;;;;;5032667;28;20194;-60
2024/03/03 08:35:51;;;;;;;6.07;1.20;;;13.50;98.10;;;;;;5029039;28;20231;-60
2024/03/03 08:38:20;;;;;;;7.17;1.23;;;13.60;97.60;;;;;;5029251;28;20200;-60
2024/03/03 08:40:48;;;;;;;6.70;1.30;;;13.80;97.20;;;;;;5042070;28;20682;-60
2024/03/03 08:43:16;;;;;;;9.43;1.30;;;13.80;96.80;;;;;;5029754;28;20206;-60
2024/03/03 08:45:43;;;;;;;6.53;1.23;;;13.90;96.70;;;;;;5031090;28;20187;-60
2024/03/03 08:48:11;;;;;;;5.73;1.37;;;14.00;96.50;;;;;;5035086;28;20666;-60
2024/03/03 08:50:40;;;;;;;3.33;1.73;;;14.00;96.20;;;;;;5028480;28;20262;-60
2024/03/03 08:53:09;;;;;;;4.23;1.73;;;14.00;96.00;;;;;;5035810;28;20257;-60
2024/03/03 08:55:37;;;;;;;2.37;1.20;;;14.10;96.00;;;;;;5035238;28;20217;-60
2024/03/03 08:58:04;;;;;;;5.33;1.70;;;14.10;95.70;;;;;;5050009;28;20203;-60
2024/03/03 09:00:33;;;;;;;4.33;1.37;;;14.20;95.60;;;;;;5033268;28;20683;-60
2024/03/03 09:03:00;;;;;;;3.73;1.40;;;14.30;95.60;;;;;;5037104;28;20297;-60
2024/03/03 09:05:27;;;;;;;2.63;1.00;;;14.50;95.70;;;;;;5033637;28;20202;-60
2024/03/03 09:07:54;;;;;;;6.40;1.53;;;14.80;95.40;;;;;;5033181;28;20221;-60
2024/03/03 09:10:21;;;;;;;3.93;1.10;;;15.00;94.90;;;;;;5031575;28;20200;-60
2024/03/03 09:12:49;;;;;;;2.77;1.17;;;15.20;94.60;;;;;;5035069;28;20250;-60
2024/03/03 09:15:16;;;;;;;4.43;1.53;;;15.40;94.50;;;;;;5034551;28;20292;-60
2024/03/03 09:17:44;;;;;;;6.70;1.33;;;15.60;94.20;;;;;;5033741;28;20623;-60
2024/03/03 09:20:11;;;;;;;5.20;1.53;;;15.90;93.50;;;;;;5034981;28;20263;-60
2024/03/03 09:22:38;;;;;;;7.50;1.83;;;16.10;92.90;;;;;;5033628;28;20249;-60
2024/03/03 09:25:06;;;;;;;6.07;1.50;;;16.20;91.90;;;;;;5033122;28;20207;-60
2024/03/03 09:27:33;;;;;;;3.60;1.20;;;16.40;91.30;;;;;;5031532;28;20196;-61
2024/03/03 09:30:01;;;;;;;6.87;1.37;;;16.50;91.20;;;;;;5031473;28;20540;-61
2024/03/03 09:32:31;;;;;;;5.70;1.43;;;16.60;91.10;;;;;;5033271;28;20196;-60
2024/03/03 09:34:58;;;;;;;3.87;1.20;;;16.70;90.60;;;;;;5027938;28;20304;-60
2024/03/03 09:37:26;;;;;;;5.77;1.00;;;16.80;90.30;;;;;;5032412;28;20591;-60
2024/03/03 09:39:53;;;;;;;2.97;0.73;;;16.80;89.30;;;;;;5031753;28;20275;-61
2024/03/03 09:42:22;;;;;;;6.10;1.23;;;16.80;87.00;;;;;;5033861;28;20193;-60
2024/03/03 09:44:54;;;;;;;7.07;1.70;;;16.60;86.80;;;;;;5033562;28;20242;-61
2024/03/03 09:47:22;;;;;;;2.63;1.10;;;16.40;87.10;;;;;;5031403;28;20195;-61
2024/03/03 09:49:51;;;;;;;2.73;1.00;;;16.30;87.50;;;;;;5032025;28;20664;-60
2024/03/03 09:52:19;;;;;;;4.60;1.10;;;16.20;87.40;;;;;;5034327;28;20260;-61
2024/03/03 09:54:47;;;;;;;8.53;1.30;;;16.10;87.10;;;;;;5032955;28;20204;-60
2024/03/03 09:57:14;;;;;;;3.07;1.10;;;16.10;88.20;;;;;;5033902;28;20205;-60
2024/03/03 09:59:42;;;;;;;2.03;1.10;;;16.20;89.20;;;;;;5033493;28;20218;-60
2024/03/03 10:02:16;;;;;;;1.83;0.87;;;16.30;88.90;;;;;;5033471;28;20257;-60
2024/03/03 10:04:48;;;;;;;3.00;1.00;;;16.50;89.00;;;;;;5031653;28;20629;-60
2024/03/03 10:07:28;;;;;;;2.93;0.90;;;16.50;88.00;;;;;;5033761;28;20803;-60
2024/03/03 10:10:05;;;;;;;4.67;1.23;;;16.60;88.00;;;;;;5031990;28;20195;-60
2024/03/03 10:12:33;;;;;;;4.60;1.10;;;16.70;87.50;;;;;;5030793;28;20209;-60
2024/03/03 10:15:04;;;;;;;2.73;0.97;;;16.70;87.10;;;;;;5031950;28;20211;-60
2024/03/03 10:17:31;;;;;;;4.43;1.10;;;16.60;86.90;;;;;;5033968;28;20203;-60
2024/03/03 10:20:06;;;;;;;2.90;0.90;;;16.60;87.10;;;;;;5033913;28;20280;-60
2024/03/03 10:22:34;;;;;;;2.37;1.20;;;16.60;86.90;;;;;;5029786;28;20202;-60
2024/03/03 10:25:09;;;;;;;4.63;1.23;;;16.50;86.10;;;;;;5025985;28;20201;-60
2024/03/03 10:27:42;;;;;;;2.50;1.30;;;16.50;85.50;;;;;;5033217;28;20234;-60
2024/03/03 10:30:09;;;;;;;1.73;1.30;;;16.40;86.10;;;;;;5030208;28;20224;-60
2024/03/03 10:32:37;;;;;;;2.60;0.70;;;16.40;86.40;;;;;;5033502;28;20207;-60
2024/03/03 10:35:07;;;;;;;4.63;1.40;;;16.30;86.60;;;;;;5031832;28;20257;-60
2024/03/03 10:37:34;;;;;;;3.37;1.10;;;16.30;86.10;;;;;;5032923;28;20286;-61
2024/03/03 10:40:01;;;;;;;3.27;1.10;;;16.30;86.20;;;;;;5031406;28;20204;-60
2024/03/03 10:42:30;;;;;;;3.07;0.77;;;16.30;86.50;;;;;;5033681;28;20230;-61
2024/03/03 10:44:58;;;;;;;2.30;1.00;;;16.30;85.90;;;;;;5032154;28;20253;-60
2024/03/03 10:47:26;;;;;;;2.00;1.60;;;16.30;86.10;;;;;;5029511;28;20215;-60
2024/03/03 10:49:53;;;;;;;3.07;1.07;;;16.20;85.80;;;;;;5033124;28;20205;-61
2024/03/03 10:52:20;;;;;;;3.87;1.37;;;16.20;85.80;;;;;;5029222;28;20665;-61
2024/03/03 10:54:48;;;;;;;5.03;1.30;;;16.10;86.30;;;;;;5031011;28;20215;-60
2024/03/03 10:57:19;;;;;;;4.13;1.20;;;16.10;87.30;;;;;;5031649;28;20210;-60
2024/03/03 10:59:47;;;;;;;6.13;1.50;;;16.10;87.60;;;;;;5028039;28;20244;-61
2024/03/03 11:02:18;;;;;;;3.67;1.30;;;16.20;88.00;;;;;;5029332;28;20204;-60
2024/03/03 11:04:46;;;;;;;2.87;1.10;;;16.20;88.00;;;;;;5029926;28;20189;-60
2024/03/03 11:07:13;;;;;;;2.67;1.20;;;16.20;88.10;;;;;;5029315;28;20200;-61
2024/03/03 11:09:43;;;;;;;3.90;1.07;;;16.20;88.30;;;;;;5028805;28;20218;-60
2024/03/03 11:12:19;;;;;;;2.47;1.20;;;16.30;88.60;;;;;;5025228;28;20268;-61
2024/03/03 11:14:47;;;;;;;2.20;1.10;;;16.30;88.80;;;;;;5027519;28;20296;-60
2024/03/03 11:17:21;;;;;;;2.00;0.90;;;16.30;88.40;;;;;;5032926;28;20564;-60
2024/03/03 11:19:50;;;;;;;3.33;0.90;;;16.20;87.70;;;;;;5029520;28;20216;-61
2024/03/03 11:22:22;;;;;;;1.83;0.90;;;16.20;88.20;;;;;;5031373;28;20203;-61
2024/03/03 11:25:03;;;;;;;3.07;0.80;;;16.30;88.50;;;;;;5029237;28;20689;-61
2024/03/03 11:27:36;;;;;;;0.90;0.70;;;16.20;88.00;;;;;;5029147;28;20215;-61
2024/03/03 11:30:05;;;;;;;2.43;1.40;;;16.20;88.00;;;;;;5029853;28;20783;-61
2024/03/03 11:32:34;;;;;;;2.60;0.90;;;16.20;87.70;;;;;;5030715;28;20585;-60
2024/03/03 11:35:02;;;;;;;3.17;1.13;;;16.20;87.10;;;;;;5030589;28;20233;-61
2024/03/03 11:37:30;;;;;;;4.53;1.30;;;16.20;87.30;;;;;;5032205;28;20251;-61
2024/03/03 11:39:59;;;;;;;2.53;1.23;;;16.30;87.40;;;;;;5032249;28;20278;-61
2024/03/03 11:42:32;;;;;;;3.50;1.47;;;16.30;87.50;;;;;;5030882;28;20211;-60
2024/03/03 11:45:00;;;;;;;3.20;1.13;;;16.40;87.50;;;;;;5028419;28;20206;-60
2024/03/03 11:47:39;;;;;;;3.57;1.47;;;16.50;87.40;;;;;;5032330;28;20195;-60
2024/03/03 11:50:20;;;;;;;3.30;1.00;;;16.50;87.30;;;;;;5025549;28;20541;-60
2024/03/03 11:52:54;;;;;;;3.80;0.87;;;16.50;85.60;;;;;;5030918;28;20281;-60
2024/03/03 11:55:30;;;;;;;3.23;0.80;;;16.50;84.30;;;;;;5024689;28;20255;-60
2024/03/03 11:58:05;;;;;;;1.50;1.10;;;16.50;83.50;;;;;;5028417;28;20255;-60
2024/03/03 12:00:32;;;;;;;3.10;1.30;;;16.40;83.80;;;;;;5031970;28;20587;-60
2024/03/03 12:03:00;;;;;;;2.60;1.00;;;16.40;83.80;;;;;;5028445;28;20304;-60
2024/03/03 12:05:28;;;;;;;2.83;0.63;;;16.40;82.90;;;;;;5029855;28;20623;-61
2024/03/03 12:07:56;;;;;;;1.90;0.90;;;16.40;82.10;;;;;;5028630;28;20732;-60
2024/03/03 12:10:25;;;;;;;3.97;0.90;;;16.50;81.90;;;;;;5029980;28;20710;-61
2024/03/03 12:12:58;;;;;;;3.63;0.97;;;16.60;81.80;;;;;;5030190;28;20205;-60
2024/03/03 12:15:27;;;;;;;4.67;1.20;;;16.60;82.00;;;;;;5028909;28;20214;-60
2024/03/03 12:17:56;;;;;;;5.23;1.10;;;16.60;83.10;;;;;;5028495;28;20202;-61
2024/03/03 12:20:25;;;;;;;5.43;1.60;;;16.70;84.10;;;;;;5029291;28;20702;-60
2024/03/03 12:22:53;;;;;;;6.63;1.37;;;16.60;84.40;;;;;;5029852;28;20245;-60
2024/03/03 12:25:24;;;;;;;4.13;1.10;;;16.50;84.00;;;;;;5031694;28;20203;-61
2024/03/03 12:27:54;;;;;;;6.73;1.37;;;16.50;84.70;;;;;;5030987;28;20197;-61
2024/03/03 12:30:42;;;;;;;3.23;1.27;;;16.50;85.70;;;;;;5027384;28;20209;-60
2024/03/03 12:33:10;;;;;;;2.97;1.00;;;16.50;85.70;;;;;;5027677;28;20244;-61
2024/03/03 12:35:37;;;;;;;3.57;1.27;;;16.40;84.00;;;;;;5030384;28;20232;-60
2024/03/03 12:38:07;;;;;;;3.60;1.27;;;16.40;84.20;;;;;;5025265;28;20773;-60
2024/03/03 12:40:34;;;;;;;5.73;1.30;;;16.40;84.40;;;;;;5027293;28;20222;-60
2024/03/03 12:43:02;;;;;;;5.93;1.40;;;16.40;83.60;;;;;;5031454;28;20191;-61
2024/03/03 12:45:30;;;;;;;5.10;1.10;;;16.30;84.30;;;;;;5027316;28;20216;-60
2024/03/03 12:47:57;;;;;;;2.60;1.47;;;16.30;85.00;;;;;;5030166;28;20213;-60
2024/03/03 12:50:24;;;;;;;3.33;1.00;;;16.40;85.50;;;;;;5027649;28;20299;-60
2024/03/03 12:52:52;;;;;;;3.10;1.40;;;16.40;85.50;;;;;;5029573;28;20200;-61
2024/03/03 12:55:25;;;;;;;6.00;1.33;;;16.50;84.60;;;;;;5027487;28;20207;-60
2024/03/03 12:57:53;;;;;;;5.30;1.17;;;16.50;84.40;;;;;;5027406;28;20265;-60
2024/03/03 13:00:21;;;;;;;2.83;1.20;;;16.50;84.40;;;;;;5030294;28;20376;-61
2024/03/03 13:02:48;;;;;;;1.80;1.00;;;16.50;83.90;;;;;;5029957;28;20201;-61